TAF EGGD
EGGD 280456Z 2806/2906 31010KT 9999 SCT040 PROB30 TEMPO 2817/2821 7000 RA BKN012 BECMG 2821/2824 VRB02KT PROB30 2900/2906 4000 BR=
METAR EGGD
WC EGGD
WS EGGD
WV EGGD